Terminal Aerodrome Forecast
Issued by NWS

Home | Current Version | Previous Version | Graphics & Text | Print | Product List | Glossary On
Versions: 1 2 3 4 5 6 7 8 9 10 11 12 13 14 15 16 17 18 19 20 21 22
973
FTUS43 KGRB 281553 AAB
TAFMTW
TAF AMD
KMTW 281553Z 2816/2912 22003KT P6SM SCT025
      TEMPO 2816/2820 SCT015 BKN025
     FM282200 14004KT P6SM SKC
     FM290200 VRB03KT P6SM FEW250
     FM290800 VRB03KT 3SM BR SCT250=

USA.gov is the U.S. government's official web portal to all federal, state and local government web resources and services.